This is the latest recevied weather packets stored in our database for station/object OK4PZ-5. If no packets are shown the sender has not sent any weather packets the latest 10 day(s).
| Time | Temp. | Humidity | Pressure | Rain* | Wind** | Luminosity | Snow |
|---|---|---|---|---|---|---|---|
| 1788511502 | 23.89° C | 59% | 1021 hPa | 0 mm | - | - | - |
| 1788510602 | 23.33° C | 62% | 1021 hPa | 0 mm | - | - | - |
| 1788509703 | 22.78° C | 63% | 1021 hPa | 0 mm | - | - | - |
| 1788508803 | 22.22° C | 66% | 1021 hPa | 0 mm | - | - | - |
| 1788507902 | 21.67° C | 67% | 1021 hPa | 0 mm | - | - | - |
| 1788507002 | 21.11° C | 69% | 1021 hPa | 0 mm | - | - | - |
| 1788506103 | 21.11° C | 68% | 1021 hPa | 0 mm | - | - | - |
| 1788505202 | 21.11° C | 68% | 1021 hPa | 0 mm | - | - | - |
| 1788504302 | 20.56° C | 71% | 1022 hPa | 0 mm | - | - | - |
| 1788503402 | 18.89° C | 73% | 1021 hPa | 0 mm | - | - | - |
| 1788502502 | 18.33° C | 77% | 1022 hPa | 0 mm | - | - | - |
| 1788501602 | 17.78° C | 77% | 1022 hPa | 0 mm | - | - | - |
| 1788500702 | 17.78° C | 77% | 1021 hPa | 0 mm | - | - | - |
| 1788499803 | 17.78° C | 77% | 1022 hPa | 0 mm | - | - | - |
| 1788498903 | 17.78° C | 78% | 1021 hPa | 0 mm | - | - | - |
| 1788498002 | 17.22° C | 78% | 1021 hPa | 0 mm | - | - | - |
| 1788497102 | 17.22° C | 78% | 1021 hPa | 0 mm | - | - | - |
| 1788496202 | 17.22° C | 77% | 1021 hPa | 0 mm | - | - | - |
| 1788495303 | 17.78° C | 76% | 1021 hPa | 0 mm | - | - | - |
| 1788494402 | 17.22° C | 79% | 1021 hPa | 0 mm | - | - | - |
| 1788493502 | 16.11° C | 84% | 1022 hPa | 0 mm | - | - | - |
| 1788492602 | 15.56° C | 88% | 1022 hPa | 0 mm | - | - | - |
| 1788491702 | 15.56° C | 88% | 1022 hPa | 0 mm | - | - | - |
| 1788490802 | 16.11° C | 87% | 1022 hPa | 0 mm | - | - | - |
| 1788489902 | 16.11° C | 86% | 1022 hPa | 0 mm | - | - | - |
* Rain latest hour (hover to see other rain measurements)
** Current wind speed in m/s (hover to see current wind gust speed)